Terminal Aerodrome Forecast
Issued by NWS Pendleton, OR

Home | Current Version | Previous Version | Text Only | Print | Product List | Glossary On
Versions: 1 2 3 4 5 6 7 8 9 10 11 12 13 14 15 16
000
FTUS46 KPDT 202300
TAFPDT
TAF
KPDT 202333Z 2100/2124 02006KT P6SM FEW060 SCT150 BKN200
     FM210400 09005KT P6SM SCT150 BKN200
     FM210900 13006KT P6SM SCT120 SCT150 OVC200
     FM211300 16007KT P6SM SCT100 BKN120
     FM212000 31009KT P6SM BKN100 OVC120=

USA.gov is the U.S. government's official web portal to all federal, state and local government web resources and services.